Time;durP1;ratioP1;P1;durP2;ratioP2;P2;SDS_P1;SDS_P2;PMS_P1;PMS_P2;Temp;Humidity;BMP_temperature;BMP_pressure;BME280_temperature;BME280_humidity;BME280_pressure;Samples;Min_cycle;Max_cycle;Signal;HPM_P1;HPM_P2
2021/06/12 00:00:14;;;;;;;23.13;12.90;;;;;;;19.49;76.90;100529.88;5030449;28;20054;-73
2021/06/12 00:02:41;;;;;;;22.58;13.38;;;;;;;19.44;77.14;100525.88;5015166;28;20068;-74
2021/06/12 00:05:10;;;;;;;21.20;14.35;;;;;;;19.41;77.33;100525.16;5015586;28;20084;-72
2021/06/12 00:07:37;;;;;;;27.33;15.77;;;;;;;19.40;77.41;100514.50;5015173;28;20054;-73
2021/06/12 00:10:06;;;;;;;22.52;14.50;;;;;;;19.35;77.62;100514.06;5015339;28;20403;-76
2021/06/12 00:12:32;;;;;;;29.83;16.95;;;;;;;19.18;78.31;100504.81;5014036;28;20064;-75
2021/06/12 00:15:00;;;;;;;30.77;17.15;;;;;;;19.17;78.15;100497.69;5030450;28;20351;-73
2021/06/12 00:17:26;;;;;;;26.52;16.77;;;;;;;19.23;77.99;100513.34;5015312;28;20324;-78
2021/06/12 00:19:53;;;;;;;28.38;17.17;;;;;;;19.14;78.62;100505.06;5025815;28;20056;-73
2021/06/12 00:22:19;;;;;;;24.40;17.40;;;;;;;19.15;78.40;100505.94;5034710;28;20496;-75
2021/06/12 00:24:46;;;;;;;30.98;18.05;;;;;;;19.10;78.69;100506.38;5034932;28;20053;-75
2021/06/12 00:27:13;;;;;;;27.65;17.55;;;;;;;19.11;78.85;100501.78;5034787;28;20354;-73
2021/06/12 00:29:40;;;;;;;24.67;16.50;;;;;;;19.10;78.91;100498.25;5035166;28;20057;-74
2021/06/12 00:32:07;;;;;;;26.60;16.92;;;;;;;19.10;78.71;100503.66;5034779;28;20073;-74
2021/06/12 00:34:33;;;;;;;32.47;19.83;;;;;;;19.07;79.07;100494.97;5033524;28;20505;-75
2021/06/12 00:37:00;;;;;;;27.50;18.02;;;;;;;19.07;79.18;100498.50;5034872;28;20053;-76
2021/06/12 00:39:27;;;;;;;31.38;18.88;;;;;;;19.11;78.98;100499.94;5034836;28;20100;-74
2021/06/12 00:41:53;;;;;;;25.95;17.45;;;;;;;19.10;79.19;100498.25;5033670;28;20435;-75
2021/06/12 00:44:20;;;;;;;29.70;19.60;;;;;;;19.14;79.10;100505.06;5034862;28;20092;-73
2021/06/12 00:46:47;;;;;;;28.67;18.85;;;;;;;19.24;78.52;100504.25;5033803;28;20107;-74
2021/06/12 00:49:14;;;;;;;28.35;18.88;;;;;;;19.20;78.42;100497.38;5034599;28;20311;-74
2021/06/12 00:51:41;;;;;;;29.77;18.50;;;;;;;19.19;79.02;100501.97;5034795;28;20115;-74
2021/06/12 00:54:07;;;;;;;33.38;18.48;;;;;;;19.16;78.57;100482.44;5034603;28;20099;-76
2021/06/12 00:56:34;;;;;;;29.30;18.33;;;;;;;19.28;78.80;100494.81;5034883;28;20099;-75
2021/06/12 00:59:01;;;;;;;29.38;17.40;;;;;;;19.34;78.01;100486.13;5034786;28;20107;-73
2021/06/12 01:01:47;;;;;;;26.58;16.13;;;;;;;19.36;77.86;100486.88;5034684;28;20049;-73
2021/06/12 01:04:13;;;;;;;26.10;16.00;;;;;;;19.37;77.62;100491.28;5034465;28;20076;-73
2021/06/12 01:06:40;;;;;;;25.08;15.82;;;;;;;19.37;77.78;100488.56;5034393;28;20115;-76
2021/06/12 01:09:09;;;;;;;20.35;13.88;;;;;;;19.47;77.33;100485.84;5034470;28;20122;-73
2021/06/12 01:11:48;;;;;;;23.85;14.80;;;;;;;19.48;77.30;100483.97;5034886;28;20061;-73
2021/06/12 01:14:18;;;;;;;21.27;13.18;;;;;;;19.50;77.44;100485.56;5036438;28;20081;-73
2021/06/12 01:16:52;;;;;;;20.48;13.45;;;;;;;19.58;77.16;100483.97;5038039;28;20328;-74
2021/06/12 01:19:37;;;;;;;20.95;12.70;;;;;;;19.58;77.00;100482.13;5032086;28;20234;-74
2021/06/12 01:22:33;;;;;;;17.95;12.10;;;;;;;19.66;76.87;100476.84;5018191;28;20432;-74
2021/06/12 01:25:06;;;;;;;16.92;11.35;;;;;;;19.62;77.06;100471.88;5007838;28;20049;-74
2021/06/12 01:28:07;;;;;;;18.67;12.02;;;;;;;19.59;77.18;100475.72;5016891;28;20049;-74
2021/06/12 01:30:35;;;;;;;15.18;9.30;;;;;;;19.58;77.63;100476.72;5017957;28;20077;-75
2021/06/12 01:33:06;;;;;;;15.52;9.32;;;;;;;19.52;77.71;100467.31;5017821;28;20076;-73
2021/06/12 01:35:37;;;;;;;13.60;8.93;;;;;;;19.54;77.91;100473.44;5017787;28;20058;-74
2021/06/12 01:38:06;;;;;;;11.18;7.43;;;;;;;19.50;77.94;100473.88;5017694;28;20428;-73
2021/06/12 01:40:40;;;;;;;9.88;7.03;;;;;;;19.53;78.08;100471.75;5017826;28;20103;-75
2021/06/12 01:43:09;;;;;;;11.88;6.93;;;;;;;19.49;78.34;100485.69;5018010;28;20061;-76
2021/06/12 01:45:40;;;;;;;14.18;6.53;;;;;;;19.49;78.04;100491.09;5016599;28;20049;-74
2021/06/12 01:48:11;;;;;;;14.63;6.20;;;;;;;19.51;78.27;100497.25;5017647;28;20057;-75
2021/06/12 01:50:39;;;;;;;9.45;6.25;;;;;;;19.56;77.87;100497.69;5016986;28;20057;-74
2021/06/12 01:53:08;;;;;;;10.38;5.40;;;;;;;19.47;78.71;100498.53;5017654;28;20110;-75
2021/06/12 01:55:37;;;;;;;13.63;5.70;;;;;;;19.42;78.37;100496.25;5016503;28;20058;-75
2021/06/12 01:58:17;;;;;;;10.23;5.75;;;;;;;19.27;79.23;100503.94;5016689;28;20053;-74
2021/06/12 02:00:45;;;;;;;9.50;5.55;;;;;;;19.34;79.24;100501.53;5017447;28;20100;-74
2021/06/12 02:03:12;;;;;;;8.20;5.05;;;;;;;19.37;79.10;100502.09;5017400;28;20134;-76
2021/06/12 02:05:41;;;;;;;11.85;5.35;;;;;;;19.36;78.86;100508.50;5016078;28;20089;-75
2021/06/12 02:08:10;;;;;;;9.27;4.63;;;;;;;19.31;78.55;100490.97;5017572;28;20494;-73
2021/06/12 02:10:38;;;;;;;8.40;5.15;;;;;;;19.31;79.06;100499.09;5017202;28;20058;-73
2021/06/12 02:13:05;;;;;;;11.23;5.20;;;;;;;19.33;79.23;100492.53;5017150;28;20436;-75
2021/06/12 02:15:32;;;;;;;10.10;4.53;;;;;;;19.28;79.17;100494.81;5017203;28;20386;-74
2021/06/12 02:18:06;;;;;;;8.55;4.40;;;;;;;19.32;79.04;100503.50;5000105;28;20116;-76
2021/06/12 02:20:34;;;;;;;7.30;4.78;;;;;;;19.23;79.46;100507.94;5032955;28;20451;-73
2021/06/12 02:23:03;;;;;;;4.63;3.60;;;;;;;19.15;78.97;100505.94;5036855;28;20057;-75
2021/06/12 02:25:30;;;;;;;8.75;4.20;;;;;;;19.17;78.73;100503.09;5036644;28;20057;-75
2021/06/12 02:28:00;;;;;;;11.77;4.20;;;;;;;19.16;78.73;100510.34;5036927;28;20073;-75
2021/06/12 02:30:30;;;;;;;10.07;4.05;;;;;;;19.08;79.30;100499.38;5036690;28;20065;-75
2021/06/12 02:33:03;;;;;;;8.52;3.75;;;;;;;19.09;79.17;100501.94;5036867;28;20057;-74
2021/06/12 02:35:30;;;;;;;10.70;3.55;;;;;;;19.12;79.00;100515.19;5036378;28;20057;-75
2021/06/12 02:37:58;;;;;;;9.77;3.85;;;;;;;19.09;79.36;100523.59;5036426;28;20045;-75
2021/06/12 02:40:26;;;;;;;7.43;3.53;;;;;;;19.15;79.10;100514.06;5036222;28;20103;-74
2021/06/12 02:42:52;;;;;;;6.65;3.42;;;;;;;19.09;79.56;100523.59;5036356;28;20057;-73
2021/06/12 02:45:20;;;;;;;4.30;3.08;;;;;;;19.12;78.97;100526.00;5035571;28;20049;-76
2021/06/12 02:47:50;;;;;;;8.80;3.03;;;;;;;18.94;78.95;100531.22;5036592;28;20099;-75
2021/06/12 02:50:20;;;;;;;11.98;3.00;;;;;;;18.97;79.20;100539.03;5035444;28;20053;-73
2021/06/12 02:52:51;;;;;;;6.15;2.78;;;;;;;18.94;78.67;100541.16;5036332;28;20056;-75
2021/06/12 02:55:18;;;;;;;3.28;2.53;;;;;;;18.96;78.17;100528.38;5036065;28;20089;-74
2021/06/12 02:57:47;;;;;;;3.33;2.83;;;;;;;18.92;78.23;100532.34;5035969;28;20459;-75
2021/06/12 03:00:17;;;;;;;4.80;2.42;;;;;;;18.78;78.45;100537.16;5036294;28;20057;-75
2021/06/12 03:02:45;;;;;;;3.60;2.25;;;;;;;18.84;78.20;100554.66;5036345;28;20053;-74
2021/06/12 03:05:26;;;;;;;4.15;2.33;;;;;;;18.84;77.99;100554.66;5035957;28;20045;-76
2021/06/12 03:07:53;;;;;;;;;;;;;;;18.71;78.12;100554.94;5035558;28;20046;-74
2021/06/12 03:10:22;;;;;;;3.90;2.42;;;;;;;18.66;78.63;100549.94;5035963;28;20012;-76
2021/06/12 03:12:50;;;;;;;3.38;2.13;;;;;;;18.62;78.53;100553.91;5036105;28;20045;-75
2021/06/12 03:15:18;;;;;;;6.03;2.42;;;;;;;18.66;78.83;100559.88;5035788;28;20045;-72
2021/06/12 03:17:46;;;;;;;4.20;2.63;;;;;;;18.56;78.88;100558.00;5036003;28;20328;-76
2021/06/12 03:20:14;;;;;;;5.18;2.42;;;;;;;18.59;78.82;100563.13;5022886;28;20410;-77
2021/06/12 03:22:43;;;;;;;5.95;2.60;;;;;;;18.57;79.02;100557.00;5015063;28;20053;-77
2021/06/12 03:25:11;;;;;;;7.25;2.83;;;;;;;18.57;79.34;100565.13;5016061;28;20372;-74
2021/06/12 03:27:39;;;;;;;3.38;2.55;;;;;;;18.42;79.72;100558.38;5015664;28;20053;-76
2021/06/12 03:30:06;;;;;;;3.00;2.60;;;;;;;18.43;79.48;100570.91;5015827;28;20108;-76
2021/06/12 03:32:33;;;;;;;10.35;2.85;;;;;;;18.44;79.05;100568.06;5015811;28;20065;-73
2021/06/12 03:35:01;;;;;;;5.07;2.63;;;;;;;18.27;79.93;100577.66;5014421;28;20070;-77
2021/06/12 03:37:28;;;;;;;4.43;3.55;;;;;;;18.18;80.26;100563.09;5015435;28;20046;-74
2021/06/12 03:39:56;;;;;;;3.58;2.40;;;;;;;18.34;79.99;100566.31;5014548;28;20049;-75
2021/06/12 03:42:23;;;;;;;3.28;2.63;;;;;;;18.34;79.79;100561.75;5015880;28;20364;-76
2021/06/12 03:44:50;;;;;;;3.13;2.83;;;;;;;18.18;80.32;100540.63;5015836;28;20057;-75
2021/06/12 03:47:17;;;;;;;4.55;2.50;;;;;;;18.16;80.48;100548.00;5015727;28;20054;-74
2021/06/12 03:49:44;;;;;;;6.22;3.00;;;;;;;18.04;80.63;100531.00;5014814;28;20046;-74
2021/06/12 03:52:11;;;;;;;5.53;3.17;;;;;;;18.04;81.16;100539.94;5015465;28;20050;-74
2021/06/12 03:54:41;;;;;;;4.50;2.88;;;;;;;17.98;81.11;100545.03;5015488;28;20050;-75
2021/06/12 03:57:07;;;;;;;4.05;3.03;;;;;;;17.87;81.48;100551.38;5015400;28;20089;-77
2021/06/12 03:59:34;;;;;;;5.93;3.35;;;;;;;17.87;80.94;100548.66;5015264;28;20054;-75
2021/06/12 04:02:02;;;;;;;8.77;3.50;;;;;;;17.87;80.62;100556.75;5015544;28;20046;-75
2021/06/12 04:04:29;;;;;;;7.28;3.25;;;;;;;17.74;81.43;100560.50;5015415;28;20148;-75
2021/06/12 04:06:55;;;;;;;8.55;3.45;;;;;;;17.70;81.45;100558.19;5015125;28;20049;-75
2021/06/12 04:09:22;;;;;;;7.85;2.60;;;;;;;17.67;81.54;100553.91;5015365;28;20413;-77
2021/06/12 04:11:49;;;;;;;4.15;3.25;;;;;;;17.59;81.57;100557.25;5015511;28;20046;-74
2021/06/12 04:14:16;;;;;;;4.95;3.08;;;;;;;17.60;81.62;100558.13;5015206;28;20367;-74
2021/06/12 04:16:42;;;;;;;4.60;2.80;;;;;;;17.54;81.52;100572.13;5015317;28;20042;-74
2021/06/12 04:19:09;;;;;;;5.75;3.13;;;;;;;17.60;81.43;100564.38;5019812;28;20046;-73
2021/06/12 04:21:36;;;;;;;6.15;2.58;;;;;;;17.53;81.92;100571.25;5033824;28;20080;-74
2021/06/12 04:24:03;;;;;;;3.75;2.53;;;;;;;17.56;82.21;100567.47;5034171;28;20123;-77
2021/06/12 04:26:29;;;;;;;5.10;2.88;;;;;;;17.63;81.55;100574.03;5034300;28;20057;-75
2021/06/12 04:28:56;;;;;;;4.47;3.03;;;;;;;17.55;81.43;100571.16;5036038;28;20053;-74
2021/06/12 04:31:23;;;;;;;5.38;2.97;;;;;;;17.56;81.45;100573.72;5037182;28;20046;-76
2021/06/12 04:33:50;;;;;;;6.28;2.75;;;;;;;17.67;81.31;100561.16;5036788;28;20062;-76
2021/06/12 04:36:17;;;;;;;5.68;3.05;;;;;;;17.65;81.13;100555.88;5035270;28;20055;-75
2021/06/12 04:38:44;;;;;;;6.38;3.00;;;;;;;17.66;81.16;100538.72;5034010;28;20381;-74
2021/06/12 04:41:11;;;;;;;5.82;3.17;;;;;;;17.61;81.13;100533.69;5033730;28;20053;-76
2021/06/12 04:43:38;;;;;;;6.25;2.60;;;;;;;17.59;81.39;100540.22;5035400;28;20053;-75
2021/06/12 04:46:04;;;;;;;6.95;3.30;;;;;;;17.69;80.86;100553.78;5034657;28;20053;-76
2021/06/12 04:48:31;;;;;;;6.22;3.42;;;;;;;17.77;80.23;100554.00;5034708;28;20415;-74
2021/06/12 04:50:58;;;;;;;5.70;3.70;;;;;;;17.73;80.57;100555.22;5038509;28;20095;-73
2021/06/12 04:53:24;;;;;;;6.30;3.45;;;;;;;17.60;80.69;100529.28;5038799;28;20049;-75
2021/06/12 04:55:51;;;;;;;8.18;3.70;;;;;;;17.73;79.89;100536.34;5038412;28;20103;-76
2021/06/12 04:58:18;;;;;;;5.90;4.13;;;;;;;17.72;79.92;100540.03;5038261;28;20050;-74
2021/06/12 05:00:46;;;;;;;9.38;4.00;;;;;;;17.76;79.99;100544.19;5038650;28;20343;-75
2021/06/12 05:03:13;;;;;;;7.00;3.80;;;;;;;17.72;80.11;100551.69;5038371;28;20096;-74
2021/06/12 05:05:40;;;;;;;6.95;4.10;;;;;;;17.77;80.08;100541.34;5033581;28;20054;-76
2021/06/12 05:08:06;;;;;;;7.88;4.10;;;;;;;17.76;79.68;100553.13;5018671;28;20049;-74
2021/06/12 05:10:33;;;;;;;8.13;4.40;;;;;;;17.62;80.27;100535.41;5034041;28;20112;-74
2021/06/12 05:13:00;;;;;;;9.32;4.50;;;;;;;17.61;80.58;100547.19;5018438;28;20509;-75
2021/06/12 05:15:29;;;;;;;5.80;4.70;;;;;;;17.60;80.31;100542.78;5018543;28;20058;-74
2021/06/12 05:17:58;;;;;;;9.07;4.30;;;;;;;17.67;80.14;100539.56;5018408;28;20042;-75
2021/06/12 05:20:25;;;;;;;7.55;4.60;;;;;;;17.60;80.31;100542.78;5018405;28;20054;-73
2021/06/12 05:22:53;;;;;;;10.15;5.05;;;;;;;17.71;79.67;100539.16;5018275;28;20061;-75
2021/06/12 05:25:20;;;;;;;7.43;5.00;;;;;;;17.70;80.07;100537.44;5018306;28;20046;-74
2021/06/12 05:27:47;;;;;;;10.57;5.78;;;;;;;17.71;79.69;100531.06;5017988;28;20107;-75
2021/06/12 05:30:14;;;;;;;10.25;5.57;;;;;;;17.72;80.06;100527.41;5016984;28;20416;-75
2021/06/12 05:32:41;;;;;;;6.78;4.93;;;;;;;17.86;79.64;100525.34;5000845;28;20054;-74
2021/06/12 05:35:08;;;;;;;6.97;5.63;;;;;;;17.96;79.29;100525.38;5017799;28;20443;-76
2021/06/12 05:37:36;;;;;;;10.10;6.05;;;;;;;17.76;79.70;100536.94;5017661;28;20100;-75
2021/06/12 05:40:05;;;;;;;7.78;5.68;;;;;;;17.88;79.71;100540.41;5017991;28;20050;-75
2021/06/12 05:42:31;;;;;;;10.27;5.78;;;;;;;18.00;78.88;100541.22;5017987;28;20057;-74
2021/06/12 05:44:58;;;;;;;8.30;5.68;;;;;;;17.99;78.69;100539.50;5017897;28;20157;-74
2021/06/12 05:47:25;;;;;;;9.05;5.57;;;;;;;17.96;78.77;100541.59;5015860;28;20050;-74
2021/06/12 05:49:51;;;;;;;7.78;5.95;;;;;;;17.83;78.64;100544.50;5025630;28;20057;-75
2021/06/12 05:52:18;;;;;;;9.23;4.82;;;;;;;17.77;79.42;100554.81;5034734;28;20552;-74
2021/06/12 05:54:45;;;;;;;10.77;5.53;;;;;;;17.90;78.87;100551.94;5036094;28;20053;-74
2021/06/12 05:57:11;;;;;;;5.70;4.85;;;;;;;18.10;78.95;100543.13;5029754;28;20042;-74
2021/06/12 05:59:38;;;;;;;7.28;4.95;;;;;;;18.18;78.65;100568.50;5035784;28;20049;-74
2021/06/12 06:02:04;;;;;;;6.45;4.63;;;;;;;18.16;78.62;100564.22;5016627;28;20088;-74
2021/06/12 06:04:31;;;;;;;7.90;5.20;;;;;;;17.99;78.85;100566.50;5017442;28;20493;-74
2021/06/12 06:06:58;;;;;;;9.40;5.18;;;;;;;18.01;79.05;100561.81;5017307;28;20077;-76
2021/06/12 06:09:27;;;;;;;8.90;4.82;;;;;;;17.83;79.43;100569.66;5017617;28;20053;-74
2021/06/12 06:11:53;;;;;;;9.85;5.47;;;;;;;17.91;79.28;100580.66;5017406;28;20077;-75
2021/06/12 06:14:20;;;;;;;7.30;5.40;;;;;;;17.80;79.65;100580.72;5017132;28;20489;-74
2021/06/12 06:16:47;;;;;;;9.25;5.93;;;;;;;17.68;80.26;100574.53;5016324;28;20053;-74
2021/06/12 06:19:14;;;;;;;13.48;6.20;;;;;;;17.77;80.20;100581.00;5020721;28;20053;-74
2021/06/12 06:21:41;;;;;;;13.68;6.50;;;;;;;17.72;79.75;100565.19;5036619;28;20065;-75
2021/06/12 06:24:08;;;;;;;11.85;6.20;;;;;;;17.95;79.97;100600.16;5026580;28;20495;-73
2021/06/12 06:26:34;;;;;;;12.77;8.02;;;;;;;17.78;80.09;100602.44;5025914;28;20108;-73
2021/06/12 06:29:01;;;;;;;14.35;7.85;;;;;;;17.75;79.82;100601.84;5024728;28;20479;-73
2021/06/12 06:31:28;;;;;;;15.05;7.25;;;;;;;17.77;80.10;100605.28;5027655;28;20041;-72
2021/06/12 06:33:56;;;;;;;12.57;7.10;;;;;;;17.88;79.65;100598.97;5022681;28;20137;-73
2021/06/12 06:36:25;;;;;;;11.77;8.02;;;;;;;17.70;80.55;100601.41;5023099;28;20050;-75
2021/06/12 06:38:52;;;;;;;13.15;9.50;;;;;;;17.64;81.04;100613.53;5026085;28;20095;-72
2021/06/12 06:41:18;;;;;;;15.63;11.95;;;;;;;17.71;80.31;100608.50;5026693;28;20061;-73
2021/06/12 06:43:45;;;;;;;14.93;10.55;;;;;;;17.77;80.46;100603.44;5025303;28;20316;-71
2021/06/12 06:46:12;;;;;;;13.35;10.48;;;;;;;17.86;79.96;100606.34;5025501;28;20366;-74
2021/06/12 06:48:39;;;;;;;16.85;10.88;;;;;;;17.90;80.18;100613.19;5026677;28;20038;-70
2021/06/12 06:51:05;;;;;;;14.35;10.52;;;;;;;17.93;79.41;100602.16;5025013;28;20042;-72
2021/06/12 06:53:35;;;;;;;14.40;10.20;;;;;;;17.78;79.92;100588.94;5026542;28;20054;-73
2021/06/12 06:56:04;;;;;;;15.18;9.48;;;;;;;18.10;79.66;100627.75;5026915;28;20125;-71
2021/06/12 06:58:31;;;;;;;14.55;9.85;;;;;;;18.14;79.34;100629.16;5025122;28;20120;-74
2021/06/12 07:01:01;;;;;;;13.57;10.03;;;;;;;18.12;78.73;100635.69;5025626;28;20049;-75
2021/06/12 07:03:27;;;;;;;12.15;10.02;;;;;;;18.09;78.90;100647.59;5042223;28;20049;-72
2021/06/12 07:05:54;;;;;;;15.27;10.00;;;;;;;17.95;79.51;100656.88;5025596;28;20046;-73
2021/06/12 07:08:21;;;;;;;14.43;10.65;;;;;;;17.94;79.67;100640.78;5026491;28;20049;-70
2021/06/12 07:10:49;;;;;;;14.40;10.63;;;;;;;17.96;79.53;100653.19;5035337;28;20056;-71
2021/06/12 07:13:24;;;;;;;16.63;11.23;;;;;;;18.00;79.11;100649.25;5035622;28;20112;-72
2021/06/12 07:15:51;;;;;;;15.35;11.88;;;;;;;18.02;78.70;100644.56;5035141;28;20123;-71
2021/06/12 07:18:17;;;;;;;13.20;11.05;;;;;;;17.92;79.08;100638.22;5034548;28;20397;-71
2021/06/12 07:20:47;;;;;;;16.95;11.27;;;;;;;18.02;79.15;100652.66;5028402;28;20053;-71
2021/06/12 07:23:16;;;;;;;14.88;12.10;;;;;;;17.95;79.18;100651.47;5035661;28;20057;-73
2021/06/12 07:25:47;;;;;;;14.48;11.48;;;;;;;17.91;79.18;100650.88;5030982;28;20076;-72
2021/06/12 07:28:15;;;;;;;15.38;11.88;;;;;;;17.93;79.52;100661.56;5024023;28;20080;-72
2021/06/12 07:30:42;;;;;;;15.57;12.23;;;;;;;17.97;79.36;100664.84;5015890;28;20053;-73
2021/06/12 07:33:11;;;;;;;15.40;12.35;;;;;;;18.02;78.88;100660.75;5022345;28;20042;-72
2021/06/12 07:35:38;;;;;;;16.58;12.70;;;;;;;17.86;79.23;100671.16;5015394;28;20061;-71
2021/06/12 07:38:05;;;;;;;21.38;13.27;;;;;;;17.73;79.35;100661.38;5015729;28;20046;-72
2021/06/12 07:40:33;;;;;;;17.77;13.18;;;;;;;17.67;80.01;100667.28;5016074;28;20065;-71
2021/06/12 07:43:00;;;;;;;19.77;14.10;;;;;;;17.81;79.49;100665.28;5015949;28;20057;-75
2021/06/12 07:45:27;;;;;;;17.55;13.23;;;;;;;17.76;79.72;100652.19;5015788;28;20053;-75
2021/06/12 07:47:54;;;;;;;17.20;13.93;;;;;;;17.59;79.80;100640.94;5015509;28;20052;-75
2021/06/12 07:50:22;;;;;;;17.98;13.18;;;;;;;17.61;80.35;100665.09;5015713;28;20112;-74
2021/06/12 07:52:49;;;;;;;19.30;13.43;;;;;;;17.58;80.48;100652.72;5015599;28;20056;-74
2021/06/12 07:55:16;;;;;;;20.20;13.65;;;;;;;17.56;80.84;100661.91;5015595;28;20124;-74
2021/06/12 07:57:43;;;;;;;17.45;13.05;;;;;;;17.55;80.75;100654.81;5015263;28;20458;-73
2021/06/12 08:00:10;;;;;;;18.42;13.70;;;;;;;17.56;80.94;100667.31;5014326;28;20482;-72
2021/06/12 08:02:37;;;;;;;14.98;13.02;;;;;;;17.69;80.09;100657.22;5015462;28;20058;-72
2021/06/12 08:05:05;;;;;;;21.50;14.32;;;;;;;17.74;80.44;100673.88;5014506;28;20057;-75
2021/06/12 08:07:32;;;;;;;20.50;14.05;;;;;;;17.75;79.89;100675.59;5015310;28;20053;-73
2021/06/12 08:10:02;;;;;;;15.90;12.63;;;;;;;17.74;80.04;100668.50;5015179;28;20118;-76
2021/06/12 08:12:32;;;;;;;18.08;14.70;;;;;;;17.63;80.69;100682.88;5015182;28;20092;-70
2021/06/12 08:14:59;;;;;;;17.40;13.87;;;;;;;17.63;80.35;100674.78;5015212;28;20058;-72
2021/06/12 08:17:26;;;;;;;20.80;15.45;;;;;;;17.68;80.07;100671.69;5014118;28;20053;-73
2021/06/12 08:19:52;;;;;;;20.70;15.57;;;;;;;17.31;82.04;100683.69;5024082;28;20179;-73
2021/06/12 08:22:19;;;;;;;19.98;15.15;;;;;;;17.38;82.48;100678.66;5035857;28;20056;-71
2021/06/12 08:24:46;;;;;;;19.40;15.23;;;;;;;17.42;83.39;100676.56;5021567;28;20053;-77
2021/06/12 08:27:12;;;;;;;18.17;15.40;;;;;;;17.46;83.70;100686.97;5039191;28;20131;-82
2021/06/12 08:29:39;;;;;;;20.75;16.00;;;;;;;17.32;84.33;100684.56;5038858;28;20053;-75
2021/06/12 08:32:06;;;;;;;21.27;15.88;;;;;;;17.29;86.11;100679.38;5038169;28;20099;-70
2021/06/12 08:34:33;;;;;;;20.88;15.55;;;;;;;17.17;86.58;100665.06;5038235;28;20442;-70
2021/06/12 08:37:02;;;;;;;22.63;17.20;;;;;;;17.06;86.69;100682.13;5039167;28;20165;-70
2021/06/12 08:39:29;;;;;;;22.90;16.55;;;;;;;17.08;87.18;100682.84;5038960;28;20332;-74
2021/06/12 08:41:56;;;;;;;27.17;18.50;;;;;;;17.05;86.78;100675.84;5037896;28;20143;-71
2021/06/12 08:44:25;;;;;;;28.25;18.92;;;;;;;17.04;86.40;100681.34;5038705;28;20061;-71
2021/06/12 08:46:52;;;;;;;29.92;19.83;;;;;;;17.12;88.42;100683.44;5038933;28;20096;-73
2021/06/12 08:49:18;;;;;;;29.85;19.65;;;;;;;17.29;87.47;100684.78;5038613;28;21340;-73
2021/06/12 08:51:46;;;;;;;30.80;20.27;;;;;;;17.28;86.03;100677.69;5048714;28;20049;-74
2021/06/12 08:54:17;;;;;;;29.98;20.30;;;;;;;17.42;85.61;100681.97;5035874;28;20343;-74
2021/06/12 08:56:48;;;;;;;30.58;20.55;;;;;;;17.47;84.90;100688.69;5026932;28;20439;-76
2021/06/12 08:59:16;;;;;;;25.58;19.67;;;;;;;17.51;84.54;100687.47;5026786;28;20053;-75
2021/06/12 09:01:44;;;;;;;28.40;19.33;;;;;;;17.41;84.77;100683.78;5041578;28;20057;-75
2021/06/12 09:04:11;;;;;;;29.67;19.50;;;;;;;17.59;84.46;100696.75;5029070;28;20042;-78
2021/06/12 09:06:39;;;;;;;28.58;20.00;;;;;;;17.62;83.75;100685.69;5029600;28;20133;-75
2021/06/12 09:09:06;;;;;;;27.65;19.77;;;;;;;17.70;83.91;100698.56;5024534;28;20050;-81
2021/06/12 09:11:35;;;;;;;31.85;20.45;;;;;;;17.67;83.53;100698.81;5028244;28;20049;-75
2021/06/12 09:14:03;;;;;;;26.45;19.77;;;;;;;17.63;83.14;100703.59;5032098;28;20057;-76
2021/06/12 09:16:38;;;;;;;29.98;20.13;;;;;;;17.73;83.17;100703.72;5027439;28;20053;-76
2021/06/12 09:19:14;;;;;;;28.05;19.73;;;;;;;17.73;83.09;100704.56;5028502;28;20045;-75
2021/06/12 09:21:58;;;;;;;27.98;19.25;;;;;;;17.91;82.00;100691.38;5028879;28;20046;-75
2021/06/12 09:24:41;;;;;;;29.23;19.92;;;;;;;17.92;81.72;100676.00;5026216;28;20088;-77
2021/06/12 09:27:14;;;;;;;29.23;20.20;;;;;;;17.96;80.84;100682.88;5022405;28;20435;-76
2021/06/12 09:29:50;;;;;;;27.48;19.85;;;;;;;18.21;80.46;100686.25;5026205;28;20435;-79
2021/06/12 09:32:31;;;;;;;27.60;19.13;;;;;;;18.44;79.39;100686.13;5028643;28;20095;-72
2021/06/12 09:35:08;;;;;;;24.80;19.25;;;;;;;18.63;78.69;100679.97;5027031;28;20439;-75
2021/06/12 09:37:35;;;;;;;30.17;19.95;;;;;;;18.91;77.58;100687.50;5028936;28;20049;-74
2021/06/12 09:40:14;;;;;;;27.20;18.98;;;;;;;18.76;76.69;100678.88;5028780;28;20041;-74
2021/06/12 09:42:56;;;;;;;28.13;19.33;;;;;;;18.87;77.01;100697.75;5028577;28;20438;-75
2021/06/12 09:45:32;;;;;;;27.33;19.85;;;;;;;18.73;78.12;100707.03;5029433;28;20065;-75
2021/06/12 09:48:13;;;;;;;28.30;19.45;;;;;;;18.57;77.55;100705.69;5028315;28;20038;-75
2021/06/12 09:50:42;;;;;;;26.98;19.30;;;;;;;18.72;77.04;100699.94;5026473;28;20061;-75
2021/06/12 09:53:21;;;;;;;22.85;17.83;;;;;;;18.73;77.58;100713.31;5025588;28;20046;-74
2021/06/12 09:55:50;;;;;;;28.42;18.50;;;;;;;18.64;77.98;100719.53;5018862;28;20061;-72
2021/06/12 09:58:17;;;;;;;24.40;18.50;;;;;;;18.67;78.22;100723.81;5031071;28;20060;-69
2021/06/12 10:00:47;;;;;;;24.17;17.42;;;;;;;18.34;78.23;100701.41;5031449;28;20180;-72
2021/06/12 10:03:31;;;;;;;26.67;17.25;;;;;;;18.51;77.85;100718.88;5024724;28;20164;-70
2021/06/12 10:06:24;;;;;;;24.80;17.92;;;;;;;18.61;78.22;100713.53;5027432;28;20124;-70
2021/06/12 10:08:53;;;;;;;21.45;17.42;;;;;;;18.73;77.77;100713.31;5022816;28;20049;-74
2021/06/12 10:11:24;;;;;;;24.35;16.85;;;;;;;18.84;77.11;100715.09;5027683;28;20057;-78
2021/06/12 10:13:52;;;;;;;24.65;17.02;;;;;;;18.82;77.17;100722.50;5021023;28;20049;-75
2021/06/12 10:16:20;;;;;;;23.27;17.02;;;;;;;18.94;77.46;100722.38;5026631;28;20414;-77
2021/06/12 10:18:50;;;;;;;25.02;17.48;;;;;;;18.97;76.58;100725.69;5027277;28;20423;-75
2021/06/12 10:21:17;;;;;;;23.13;17.87;;;;;;;18.86;77.24;100714.97;5026490;28;20116;-74
2021/06/12 10:23:45;;;;;;;27.02;18.02;;;;;;;18.79;77.93;100728.16;5026404;28;20290;-76
2021/06/12 10:26:15;;;;;;;25.52;18.65;;;;;;;18.59;77.77;100717.22;5024281;28;20050;-75
2021/06/12 10:28:43;;;;;;;25.77;17.77;;;;;;;18.91;77.14;100730.78;5022513;28;20050;-80
2021/06/12 10:31:21;;;;;;;24.65;17.77;;;;;;;19.05;76.33;100733.16;5023545;28;20045;-74
2021/06/12 10:33:52;;;;;;;22.85;17.13;;;;;;;19.16;76.49;100734.06;5025753;28;20053;-75
2021/06/12 10:36:25;;;;;;;28.00;17.13;;;;;;;19.16;75.72;100736.78;5024788;28;20065;-76
2021/06/12 10:38:54;;;;;;;20.33;16.30;;;;;;;19.20;75.95;100735.50;5028358;28;20056;-76
2021/06/12 10:41:34;;;;;;;23.05;16.85;;;;;;;19.25;75.70;100744.06;5025895;28;20050;-75
2021/06/12 10:44:03;;;;;;;24.90;17.08;;;;;;;19.35;75.21;100733.28;5025736;28;20041;-76
2021/06/12 10:46:33;;;;;;;23.73;16.75;;;;;;;19.45;74.62;100731.44;5021656;28;20347;-78
2021/06/12 10:49:01;;;;;;;23.47;18.07;;;;;;;19.23;75.51;100740.66;5025190;28;20050;-76
2021/06/12 10:51:28;;;;;;;22.88;16.67;;;;;;;19.18;75.50;100742.91;5025827;28;20112;-79
2021/06/12 10:54:08;;;;;;;22.38;17.00;;;;;;;19.13;76.13;100740.59;5026067;28;20060;-76
2021/06/12 10:56:37;;;;;;;26.88;17.90;;;;;;;19.10;76.53;100736.31;5024188;28;20050;-75
2021/06/12 10:59:05;;;;;;;24.00;17.23;;;;;;;19.07;76.40;100731.16;5021329;28;20459;-77
2021/06/12 11:01:32;;;;;;;20.48;17.02;;;;;;;19.24;75.77;100732.38;5025754;28;20173;-81
2021/06/12 11:09:14;;;;;;;28.33;17.42;;;;;;;19.63;75.23;100731.66;5025192;28;20053;-79
2021/06/12 11:11:51;;;;;;;30.85;17.75;;;;;;;19.64;74.86;100718.97;5023853;28;20125;-80
2021/06/12 11:14:21;;;;;;;25.00;19.05;;;;;;;19.61;74.61;100722.81;5028832;28;20049;-80
2021/06/12 11:19:36;;;;;;;27.13;17.20;;;;;;;19.70;74.61;100726.53;5025593;28;20423;-78
2021/06/12 11:22:30;;;;;;;24.52;17.02;;;;;;;19.67;73.81;100730.38;5033570;28;20049;-79
2021/06/12 11:25:01;;;;;;;21.38;16.80;;;;;;;19.80;73.72;100731.97;5033729;28;20119;-74
2021/06/12 11:27:46;;;;;;;25.98;18.08;;;;;;;19.87;74.20;100733.13;5034157;28;20435;-74
2021/06/12 11:30:19;;;;;;;;;;;;;;;19.90;73.57;100729.28;5036257;28;20099;-74
2021/06/12 11:32:56;;;;;;;25.15;16.95;;;;;;;20.18;72.97;100721.31;5035091;28;19924;-74